Time;durP1;ratioP1;P1;durP2;ratioP2;P2;SDS_P1;SDS_P2;PMS_P1;PMS_P2;Temp;Humidity;BMP_temperature;BMP_pressure;BME280_temperature;BME280_humidity;BME280_pressure;Samples;Min_cycle;Max_cycle;Signal;HPM_P1;HPM_P2
2021/10/09 00:00:31;;;;;;;;;;;;;;;10.46;97.97;102923.03;5105180;28;20462;-58
2021/10/09 00:02:58;;;;;;;;;;;;;;;10.42;98.95;102930.13;5076146;28;19935;-58
2021/10/09 00:05:24;;;;;;;;;;;;;;;10.38;99.73;102923.25;5076271;28;19928;-58
2021/10/09 00:07:51;;;;;;;;;;;;;;;10.41;99.66;102915.25;5076162;28;19924;-57
2021/10/09 00:10:25;;;;;;;;;;;;;;;10.43;99.24;102917.84;5074505;28;20382;-58
2021/10/09 00:12:52;;;;;;;;;;;;;;;10.41;99.41;102917.88;5102218;28;20185;-58
2021/10/09 00:15:18;;;;;;;;;;;;;;;10.43;99.38;102916.09;5075099;28;19928;-50
2021/10/09 00:17:45;;;;;;;;;;;;;;;10.39;99.72;102924.09;5075858;28;19925;-49
2021/10/09 00:20:12;;;;;;;;;;;;;;;10.34;99.83;102918.97;5075937;28;20362;-51
2021/10/09 00:22:38;;;;;;;;;;;;;;;10.34;99.67;102918.13;5076019;28;19929;-49
2021/10/09 00:25:06;;;;;;;;;;;;;;;10.34;100.00;102923.38;5075662;28;19924;-48
2021/10/09 00:27:33;;;;;;;;;;;;;;;10.37;99.93;102921.53;5075920;28;20019;-48
2021/10/09 00:30:00;;;;;;;;;;;;;;;10.36;100.00;102916.31;5075865;28;19932;-51
2021/10/09 00:32:26;;;;;;;;;;;;;;;10.34;100.00;102918.97;5074897;28;19924;-51
2021/10/09 00:34:53;;;;;;;;;;;;;;;10.31;100.00;102919.91;5072479;28;20375;-53
2021/10/09 00:37:19;;;;;;;;;;;;;;;10.35;100.00;102925.09;5073956;28;19935;-48
2021/10/09 00:39:46;;;;;;;;;;;;;;;10.28;99.83;102924.41;5107948;28;19964;-48
2021/10/09 00:42:13;;;;;;;;;;;;;;;10.27;100.00;102923.53;5075091;28;19925;-49
2021/10/09 00:44:40;;;;;;;;;;;;;;;10.24;100.00;102925.41;5072067;28;20296;-47
2021/10/09 00:47:06;;;;;;;;;;;;;;;10.30;100.00;102918.19;5073146;28;19929;-45
2021/10/09 00:49:33;;;;;;;;;;;;;;;10.24;100.00;102918.38;5074373;28;19925;-59
2021/10/09 00:52:03;;;;;;;;;;;;;;;10.26;100.00;102920.97;5072201;28;20401;-47
2021/10/09 00:54:29;;;;;;;;;;;;;;;10.28;100.00;102920.03;5072578;28;19970;-46
2021/10/09 00:56:56;;;;;;;;;;;;;;;10.24;100.00;102917.50;5074554;28;19982;-50
2021/10/09 00:59:26;;;;;;;;;;;;;;;10.11;100.00;102917.88;5106833;28;19925;-51
2021/10/09 01:01:53;;;;;;;;;;;;;;;10.09;100.00;102918.84;5074810;28;20402;-51
2021/10/09 01:04:20;;;;;;;;;;;;;;;10.11;100.00;102914.41;5106967;28;19928;-50
2021/10/09 01:06:47;;;;;;;;;;;;;;;10.05;100.00;102912.84;5107440;28;19929;-50
2021/10/09 01:09:14;;;;;;;;;;;;;;;10.03;100.00;102916.41;5073887;28;19924;-51
2021/10/09 01:11:40;;;;;;;;;;;;;;;10.05;100.00;102909.31;5075039;28;19986;-50
2021/10/09 01:14:08;;;;;;;;;;;;;;;10.05;100.00;102917.22;5074540;28;19928;-47
2021/10/09 01:16:35;;;;;;;;;;;;;;;10.03;100.00;102911.16;5105954;28;19925;-50
2021/10/09 01:19:02;;;;;;;;;;;;;;;10.01;100.00;102900.69;5072261;28;19936;-51
2021/10/09 01:21:37;;;;;;;;;;;;;;;10.00;100.00;102904.22;5073752;28;20011;-50
2021/10/09 01:24:03;;;;;;;;;;;;;;;10.02;100.00;102904.16;5074543;28;20368;-51
2021/10/09 01:26:30;;;;;;;;;;;;;;;9.91;100.00;102896.59;5074899;28;20217;-49
2021/10/09 01:28:57;;;;;;;;;;;;;;;9.87;100.00;102903.72;5073191;28;19935;-50
2021/10/09 01:31:23;;;;;;;;;;;;;;;9.89;100.00;102901.06;5071642;28;19925;-49
2021/10/09 01:33:50;;;;;;;;;;;;;;;9.88;100.00;102905.44;5073225;28;19963;-50
2021/10/09 01:36:17;;;;;;;;;;;;;;;9.85;100.00;102900.28;5106528;28;19990;-47
2021/10/09 01:38:50;;;;;;;;;;;;;;;9.79;100.00;102896.06;5073898;28;19924;-49
2021/10/09 01:41:17;;;;;;;;;;;;;;;9.76;100.00;102892.66;5106263;28;20054;-48
2021/10/09 01:43:44;;;;;;;;;;;;;;;9.75;100.00;102898.84;5074330;28;19972;-52
2021/10/09 01:46:10;;;;;;;;;;;;;;;9.77;100.00;102895.22;5074283;28;19924;-58
2021/10/09 01:48:38;;;;;;;;;;;;;;;9.70;100.00;102901.56;5074293;28;19928;-59
2021/10/09 01:51:05;;;;;;;;;;;;;;;9.72;100.00;102886.66;5074244;28;19929;-58
2021/10/09 01:53:31;;;;;;;;;;;;;;;9.74;100.00;102886.59;5070803;28;20873;-58
2021/10/09 01:55:58;;;;;;;;;;;;;;;9.65;100.00;102885.06;5071617;28;19956;-58
2021/10/09 01:58:25;;;;;;;;;;;;;;;9.71;100.00;102889.31;5074121;28;19925;-58
2021/10/09 02:00:51;;;;;;;;;;;;;;;9.67;100.00;102885.03;5104709;28;19928;-58
2021/10/09 02:03:20;;;;;;;;;;;;;;;9.67;100.00;102885.91;5069804;28;19924;-58
2021/10/09 02:05:47;;;;;;;;;;;;;;;9.62;100.00;102885.16;5073627;28;19928;-58
2021/10/09 02:08:14;;;;;;;;;;;;;;;9.65;100.00;102885.06;5069265;28;19925;-58
2021/10/09 02:10:57;;;;;;;;;;;;;;;9.59;100.00;102883.50;5087616;28;19924;-58
2021/10/09 02:13:30;;;;;;;;;;;;;;;9.55;100.00;102881.84;5073602;28;19929;-58
2021/10/09 02:16:07;;;;;;;;;;;;;;;9.51;100.00;102889.88;5073184;28;19932;-58
2021/10/09 02:26:34;;;;;;;;;;;;;;;9.48;100.00;102893.44;5105482;28;19924;-58
2021/10/09 02:29:00;;;;;;;;;;;;;;;9.40;100.00;102888.41;5105880;28;20391;-58
2021/10/09 02:31:28;;;;;;;;;;;;;;;9.40;100.00;102884.91;5073416;28;20339;-58
2021/10/09 02:33:54;;;;;;;;;;;;;;;9.38;100.00;102886.72;5073063;28;19931;-57
2021/10/09 02:36:21;;;;;;;;;;;;;;;9.29;100.00;102888.69;5073056;28;19990;-58
2021/10/09 02:38:48;;;;;;;;;;;;;;;9.28;100.00;102889.63;5072978;28;19924;-59
2021/10/09 02:41:14;;;;;;;;;;;;;;;9.35;100.00;102889.44;5072045;28;19924;-58
2021/10/09 02:43:41;;;;;;;;;;;;;;;9.33;100.00;102886.00;5067811;28;20619;-58
2021/10/09 02:46:08;;;;;;;;;;;;;;;9.30;100.00;102886.94;5071252;28;20398;-58
2021/10/09 02:48:34;;;;;;;;;;;;;;;9.26;100.00;102890.56;5073065;28;19925;-58
2021/10/09 02:51:01;;;;;;;;;;;;;;;9.25;100.00;102887.06;5071314;28;19928;-58
2021/10/09 02:53:28;;;;;;;;;;;;;;;9.23;100.00;102885.38;5069978;28;19964;-58
2021/10/09 02:55:54;;;;;;;;;;;;;;;9.25;100.00;102891.44;5105252;28;19974;-57
2021/10/09 02:58:21;;;;;;;;;;;;;;;9.18;100.00;102877.63;5073219;28;19985;-58
2021/10/09 03:00:47;;;;;;;;;;;;;;;9.15;100.00;102882.97;5073021;28;19925;-58
2021/10/09 03:03:14;;;;;;;;;;;;;;;9.16;100.00;102871.53;5105392;28;19924;-58
2021/10/09 03:05:41;;;;;;;;;;;;;;;9.14;100.00;102876.84;5070849;28;19924;-57
2021/10/09 03:08:07;;;;;;;;;;;;;;;9.18;100.00;102880.25;5101975;28;19932;-58
2021/10/09 03:10:34;;;;;;;;;;;;;;;9.16;100.00;102875.94;5072100;28;19925;-57
2021/10/09 03:13:01;;;;;;;;;;;;;;;9.14;100.00;102878.63;5072528;28;19924;-58
2021/10/09 03:15:27;;;;;;;;;;;;;;;9.13;100.00;102879.50;5072804;28;19925;-58
2021/10/09 03:17:54;;;;;;;;;;;;;;;9.10;100.00;102879.59;5105094;28;19928;-58
2021/10/09 03:20:20;;;;;;;;;;;;;;;9.08;100.00;102881.38;5072828;28;19931;-58
2021/10/09 03:22:47;;;;;;;;;;;;;;;9.05;100.00;102881.47;5072772;28;19928;-58
2021/10/09 03:25:14;;;;;;;;;;;;;;;9.08;100.00;102884.00;5070006;28;19990;-58
2021/10/09 03:27:41;;;;;;;;;;;;;;;9.03;100.00;102886.78;5103376;28;19924;-58
2021/10/09 03:30:08;;;;;;;;;;;;;;;9.01;100.00;102878.06;5107234;28;20446;-58
2021/10/09 03:32:35;;;;;;;;;;;;;;;9.06;100.00;102883.19;5106018;28;19924;-57
2021/10/09 03:35:02;;;;;;;;;;;;;;;9.05;100.00;102884.97;5091137;28;19924;-57
2021/10/09 03:37:29;;;;;;;;;;;;;;;9.00;100.00;102880.72;5109020;28;20376;-57
2021/10/09 03:40:00;;;;;;;;;;;;;;;8.95;100.00;102865.09;5091778;28;19950;-58
2021/10/09 03:42:33;;;;;;;;;;;;;;;8.90;100.00;102872.22;5075085;28;19924;-58
2021/10/09 03:45:08;;;;;;;;;;;;;;;8.91;100.00;102879.22;5076359;28;19974;-57
2021/10/09 03:52:50;;;;;;;;;;;;;;;8.79;100.00;102875.13;5074427;28;19970;-58
2021/10/09 03:55:18;;;;;;;;;;;;;;;8.79;100.00;102873.38;5076583;28;20333;-58
2021/10/09 03:57:44;;;;;;;;;;;;;;;8.80;100.00;102872.47;5076398;28;19967;-58
2021/10/09 04:00:12;;;;;;;;;;;;;;;8.79;100.00;102875.13;5105856;28;19978;-58
2021/10/09 04:02:39;;;;;;;;;;;;;;;8.79;100.00;102875.13;5073475;28;20054;-58
2021/10/09 04:05:06;;;;;;;;;;;;;;;8.76;100.00;102870.81;5108351;28;19924;-59
2021/10/09 04:07:33;;;;;;;;;;;;;;;8.75;100.00;102871.75;5108599;28;19924;-58
2021/10/09 04:09:59;;;;;;;;;;;;;;;8.73;100.00;102870.06;5076051;28;19925;-45
2021/10/09 04:12:26;;;;;;;;;;;;;;;8.68;100.00;102874.53;5075839;28;19932;-47
2021/10/09 04:14:53;;;;;;;;;;;;;;;8.73;100.00;102872.69;5104808;28;20441;-49
2021/10/09 04:17:19;;;;;;;;;;;;;;;8.73;100.00;102870.06;5073401;28;19990;-47
2021/10/09 04:19:46;;;;;;;;;;;;;;;8.71;100.00;102874.47;5108399;28;20281;-52
2021/10/09 04:22:13;;;;;;;;;;;;;;;8.61;100.00;102877.31;5075897;28;19924;-45
2021/10/09 04:24:40;;;;;;;;;;;;;;;8.58;100.00;102871.28;5075766;28;19978;-49
2021/10/09 04:27:06;;;;;;;;;;;;;;;8.60;100.00;102886.09;5075588;28;19928;-47
2021/10/09 04:29:33;;;;;;;;;;;;;;;8.48;100.00;102881.16;5075728;28;19924;-48
2021/10/09 04:32:00;;;;;;;;;;;;;;;8.42;100.00;102878.63;5075598;28;20434;-58
2021/10/09 04:34:27;;;;;;;;;;;;;;;8.49;100.00;102877.59;5075425;28;19925;-57
2021/10/09 04:36:55;;;;;;;;;;;;;;;8.50;100.00;102881.97;5105702;28;19962;-57
2021/10/09 04:39:23;;;;;;;;;;;;;;;8.48;100.00;102878.53;5104162;28;19925;-57
2021/10/09 04:41:49;;;;;;;;;;;;;;;8.47;100.00;102879.41;5073903;28;19925;-47
2021/10/09 04:44:16;;;;;;;;;;;;;;;8.38;100.00;102883.06;5074667;28;19924;-51
2021/10/09 04:46:43;;;;;;;;;;;;;;;8.39;100.00;102876.09;5072664;28;19928;-47
2021/10/09 04:49:09;;;;;;;;;;;;;;;8.37;100.00;102878.75;5072142;28;20380;-48
2021/10/09 04:51:36;;;;;;;;;;;;;;;8.40;100.00;102881.28;5072789;28;19924;-50
2021/10/09 04:54:03;;;;;;;;;;;;;;;8.42;100.00;102876.00;5072539;28;19928;-46
2021/10/09 04:56:29;;;;;;;;;;;;;;;8.35;100.00;102877.91;5074385;28;19974;-49
2021/10/09 04:58:56;;;;;;;;;;;;;;;8.37;100.00;102880.50;5073781;28;19928;-51
2021/10/09 05:01:23;;;;;;;;;;;;;;;8.34;100.00;102880.56;5074252;28;19928;-48
2021/10/09 05:03:49;;;;;;;;;;;;;;;8.29;100.00;102883.31;5072660;28;19978;-49
2021/10/09 05:06:16;;;;;;;;;;;;;;;8.23;100.00;102878.19;5073946;28;20361;-52
2021/10/09 05:08:43;;;;;;;;;;;;;;;8.23;100.00;102891.31;5073037;28;19978;-51
2021/10/09 05:11:10;;;;;;;;;;;;;;;8.26;100.00;102888.59;5072163;28;19974;-58
2021/10/09 05:13:36;;;;;;;;;;;;;;;8.19;100.00;102887.03;5074522;28;19947;-58
2021/10/09 05:16:03;;;;;;;;;;;;;;;8.24;100.00;102888.63;5106092;28;19928;-59
2021/10/09 05:18:30;;;;;;;;;;;;;;;8.25;100.00;102892.13;5072186;28;20002;-58
2021/10/09 05:20:56;;;;;;;;;;;;;;;8.20;100.00;102889.59;5073694;28;19924;-58
2021/10/09 05:23:23;;;;;;;;;;;;;;;8.19;100.00;102895.75;5073738;28;19931;-59
2021/10/09 05:25:50;;;;;;;;;;;;;;;8.17;100.00;102891.44;5072185;28;20031;-58
2021/10/09 05:28:21;;;;;;;;;;;;;;;8.10;100.00;102899.44;5071631;28;19960;-58
2021/10/09 05:30:48;;;;;;;;;;;;;;;8.09;100.00;102899.47;5074312;28;19935;-57
2021/10/09 05:35:42;;;;;;;;;;;;;;;8.16;100.00;102905.44;5106630;28;19978;-58
2021/10/09 05:38:09;;;;;;;;;;;;;;;8.14;100.00;102905.47;5074285;28;19932;-58
2021/10/09 05:40:36;;;;;;;;;;;;;;;8.09;100.00;102909.97;5074042;28;20015;-58
2021/10/09 05:43:03;;;;;;;;;;;;;;;8.10;100.00;102906.44;5074008;28;19925;-57
2021/10/09 05:45:30;;;;;;;;;;;;;;;8.09;100.00;102905.56;5106313;28;19925;-58
2021/10/09 05:47:57;;;;;;;;;;;;;;;8.07;100.00;102907.38;5106228;28;20409;-58
2021/10/09 05:50:28;;;;;;;;;;;;;;;8.06;100.00;102899.56;5071777;28;19924;-57
2021/10/09 05:56:00;;;;;;;;;;;;;;;7.94;100.00;102906.75;5062194;28;20406;-57
2021/10/09 05:58:36;;;;;;;;;;;;;;;8.03;100.00;102904.84;5069902;28;19924;-57
2021/10/09 06:31:28;;;;;;;;;;;;;;;7.77;100.00;102938.56;5073532;28;19931;-57
2021/10/09 06:42:29;;;;;;;;;;;;;;;7.80;100.00;102948.13;5072483;28;20415;-57
2021/10/09 07:00:33;;;;;;;;;;;;;;;8.05;100.00;102948.47;5073035;28;19928;-57
2021/10/09 07:03:00;;;;;;;;;;;;;;;8.08;100.00;102952.78;5105326;28;20377;-56
2021/10/09 07:05:27;;;;;;;;;;;;;;;8.17;100.00;102960.47;5073151;28;19924;-57
2021/10/09 07:08:04;;;;;;;;;;;;;;;8.22;100.00;102960.34;5105456;28;19925;-47
2021/10/09 07:10:32;;;;;;;;;;;;;;;8.33;100.00;102961.00;5072894;28;19924;-47
2021/10/09 07:12:58;;;;;;;;;;;;;;;8.32;100.00;102959.25;5072743;28;20345;-48
2021/10/09 07:15:25;;;;;;;;;;;;;;;8.44;100.00;102958.13;5072753;28;19924;-57
2021/10/09 07:17:51;;;;;;;;;;;;;;;8.38;100.00;102963.50;5072517;28;19924;-57
2021/10/09 07:20:19;;;;;;;;;;;;;;;8.38;100.00;102966.13;5072787;28;19986;-57
2021/10/09 07:22:48;;;;;;;;;;;;;;;8.45;100.00;102968.63;5072667;28;19924;-57
2021/10/09 07:25:18;;;;;;;;;;;;;;;8.46;100.00;102969.47;5068084;28;19966;-57
2021/10/09 07:27:46;;;;;;;;;;;;;;;8.44;100.00;102971.25;5102058;28;20257;-56
2021/10/09 07:30:13;;;;;;;;;;;;;;;8.49;100.00;102974.63;5072290;28;19955;-56
2021/10/09 07:32:40;;;;;;;;;;;;;;;8.41;100.00;102973.91;5104833;28;19925;-57
2021/10/09 07:35:07;;;;;;;;;;;;;;;8.44;100.00;102977.34;5072542;28;19955;-56
2021/10/09 07:37:33;;;;;;;;;;;;;;;8.45;100.00;102975.59;5072347;28;19929;-57
2021/10/09 07:40:00;;;;;;;;;;;;;;;8.43;100.00;102980.00;5072567;28;20376;-57
2021/10/09 07:42:29;;;;;;;;;;;;;;;8.39;100.00;102980.97;5104386;28;20397;-48
2021/10/09 07:44:55;;;;;;;;;;;;;;;8.26;100.00;102981.25;5072593;28;19932;-46
2021/10/09 07:47:22;;;;;;;;;;;;;;;8.20;100.00;102985.75;5102467;28;19978;-46
2021/10/09 07:49:49;;;;;;;;;;;;;;;8.28;100.00;102984.66;5070661;28;19941;-45
2021/10/09 07:52:15;;;;;;;;;;;;;;;8.29;100.00;102991.66;5071602;28;19925;-48
2021/10/09 07:54:42;;;;;;;;;;;;;;;8.32;100.00;102992.47;5069705;28;19978;-46
2021/10/09 07:57:09;;;;;;;;;;;;;;;8.38;100.00;102992.34;5086140;28;19982;-49
2021/10/09 07:59:36;;;;;;;;;;;;;;;8.42;100.00;102986.97;5069924;28;20364;-44
2021/10/09 08:02:04;;;;;;;;;;;;;;;8.35;100.00;102990.66;5069761;28;19978;-58
2021/10/09 08:04:32;;;;;;;;;;;;;;;8.35;100.00;102989.78;5104290;28;19970;-56
2021/10/09 08:06:58;;;;;;;;;;;;;;;8.36;100.00;102997.63;5072192;28;19928;-57
2021/10/09 08:09:29;;;;;;;;;;;;;;;8.41;100.00;102994.88;5071023;28;20362;-57
2021/10/09 08:11:55;;;;;;;;;;;;;;;8.43;100.00;102995.75;5072372;28;19974;-57
2021/10/09 08:14:22;;;;;;;;;;;;;;;8.44;100.00;103007.97;5071395;28;19950;-57
2021/10/09 08:16:49;;;;;;;;;;;;;;;8.53;100.00;103002.53;5105323;28;19936;-57
2021/10/09 08:19:16;;;;;;;;;;;;;;;8.44;100.00;102997.47;5075626;28;19928;-59
2021/10/09 08:21:44;;;;;;;;;;;;;;;8.46;100.00;103003.56;5076241;28;19978;-57
2021/10/09 08:24:24;;;;;;;;;;;;;;;8.53;100.00;103004.28;5074430;28;20549;-57
2021/10/09 08:27:12;;;;;;;;;;;;;;;8.54;100.00;103008.66;5070985;28;20650;-47
2021/10/09 08:40:40;;;;;;;;;;;;;;;9.02;100.00;103007.53;5075489;28;20380;-45
2021/10/09 08:43:06;;;;;;;;;;;;;;;8.92;100.00;103007.75;5072878;28;19925;-44
2021/10/09 08:45:33;;;;;;;;;;;;;;;8.97;100.00;103010.25;5104301;28;19924;-56
2021/10/09 08:48:00;;;;;;;;;;;;;;;9.03;99.27;103014.53;5074423;28;20387;-56
2021/10/09 08:50:27;;;;;;;;;;;;;;;9.12;98.84;103016.91;5075695;28;20044;-57
2021/10/09 08:53:00;;;;;;;;;;;;;;;9.18;98.19;103011.53;5107784;28;19928;-57
2021/10/09 08:55:28;;;;;;;;;;;;;;;9.18;98.97;103015.91;5073632;28;19931;-56
2021/10/09 08:58:00;;;;;;;;;;;;;;;9.31;98.47;103017.31;5087360;28;19928;-46
2021/10/09 09:00:37;;;;;;;;;;;;;;;9.55;98.15;103013.19;5104511;28;19924;-45
2021/10/09 09:03:08;;;;;;;;;;;;;;;9.94;98.37;103025.31;5074726;28;19964;-45
2021/10/09 09:31:26;;;;;;;;;;;;;;;12.81;81.26;103012.19;5073266;28;20019;-56
2021/10/09 09:34:04;;;;;;;;;;;;;;;13.16;79.34;103001.97;5072156;28;19928;-57
2021/10/09 09:39:06;;;;;;;;;;;;;;;13.72;76.63;102999.63;5074516;28;19970;-57
2021/10/09 09:41:50;;;;;;;;;;;;;;;14.03;75.89;102992.00;5074505;28;19929;-57
2021/10/09 09:44:17;;;;;;;;;;;;;;;14.14;74.12;102994.16;5074189;28;19924;-57
2021/10/09 09:47:02;;;;;;;;;;;;;;;14.30;73.50;102993.44;5074164;28;19982;-57
2021/10/09 09:49:50;;;;;;;;;;;;;;;14.44;73.48;102985.72;5105482;28;19932;-57
2021/10/09 09:52:16;;;;;;;;;;;;;;;14.37;72.12;102984.31;5103408;28;20026;-57
2021/10/09 09:54:43;;;;;;;;;;;;;;;14.65;72.63;102980.34;5073585;28;19928;-57
2021/10/09 09:57:10;;;;;;;;;;;;;;;14.67;70.22;102973.19;5106102;28;19928;-57
2021/10/09 09:59:36;;;;;;;;;;;;;;;14.97;70.41;102976.13;5106033;28;19960;-58
2021/10/09 10:02:03;;;;;;;;;;;;;;;15.26;69.61;102972.94;5073610;28;19977;-57
2021/10/09 10:04:34;;;;;;;;;;;;;;;15.45;69.32;102968.38;5072405;28;19928;-56
2021/10/09 10:07:02;;;;;;;;;;;;;;;15.26;67.97;102962.34;5070812;28;20492;-57
2021/10/09 10:09:29;;;;;;;;;;;;;;;15.36;69.37;102966.22;5073003;28;20337;-57
2021/10/09 10:11:59;;;;;;;;;;;;;;;15.49;67.35;102969.09;5073887;28;19939;-57
2021/10/09 10:14:31;;;;;;;;;;;;;;;15.85;66.38;102970.75;5105954;28;19929;-57
2021/10/09 10:16:58;;;;;;;;;;;;;;;16.07;64.92;102967.78;5089067;28;19986;-57
2021/10/09 10:19:51;;;;;;;;;;;;;;;16.28;66.34;102965.75;5071507;28;20279;-57
2021/10/09 10:22:18;;;;;;;;;;;;;;;16.38;63.46;102960.75;5071398;28;19931;-56
2021/10/09 10:24:48;;;;;;;;;;;;;;;16.78;64.13;102952.31;5105888;28;19924;-56
2021/10/09 10:27:33;;;;;;;;;;;;;;;16.83;61.04;102958.22;5073277;28;19977;-57
2021/10/09 10:30:20;;;;;;;;;;;;;;;16.88;61.23;102964.97;5105028;28;19929;-56
2021/10/09 10:32:56;;;;;;;;;;;;;;;16.98;60.99;102956.50;5073777;28;19924;-56
2021/10/09 10:35:28;;;;;;;;;;;;;;;17.34;60.39;102949.91;5073235;28;19931;-57
2021/10/09 10:37:58;;;;;;;;;;;;;;;17.46;58.08;102954.47;5105238;28;19931;-57
2021/10/09 10:40:43;;;;;;;;;;;;;;;17.56;57.94;102952.09;5073136;28;19925;-57
2021/10/09 10:43:28;;;;;;;;;;;;;;;18.03;57.75;102948.28;5073171;28;19932;-56
2021/10/09 10:45:55;;;;;;;;;;;;;;;17.87;56.35;102952.84;5072133;28;20362;-57
2021/10/09 10:48:40;;;;;;;;;;;;;;;18.11;56.84;102944.31;5102463;28;19924;-57
2021/10/09 10:51:14;;;;;;;;;;;;;;;18.58;56.60;102949.19;5072786;28;19998;-57
2021/10/09 10:56:35;;;;;;;;;;;;;;;18.69;56.02;102942.28;5066882;28;20293;-56
2021/10/09 10:59:20;;;;;;;;;;;;;;;18.95;54.19;102945.91;5069956;28;19972;-56
2021/10/09 11:01:46;;;;;;;;;;;;;;;19.25;52.77;102937.59;5072482;28;19924;-56
2021/10/09 11:04:13;;;;;;;;;;;;;;;19.45;53.10;102940.69;5072814;28;19924;-56
2021/10/09 11:06:40;;;;;;;;;;;;;;;19.47;51.46;102937.91;5071529;28;19948;-57
2021/10/09 11:09:06;;;;;;;;;;;;;;;19.22;53.07;102935.16;5102286;28;19931;-56
2021/10/09 11:11:34;;;;;;;;;;;;;;;19.85;52.67;102937.03;5104618;28;19924;-58
2021/10/09 11:14:00;;;;;;;;;;;;;;;19.90;51.35;102935.72;5072622;28;19925;-56
2021/10/09 11:16:30;;;;;;;;;;;;;;;20.13;50.50;102935.03;5072726;28;19931;-56
2021/10/09 11:18:57;;;;;;;;;;;;;;;19.85;50.77;102931.69;5105127;28;19970;-56
2021/10/09 11:21:24;;;;;;;;;;;;;;;19.67;51.54;102934.69;5071363;28;19925;-57
2021/10/09 11:23:52;;;;;;;;;;;;;;;20.06;50.17;102937.31;5070020;28;19935;-57
2021/10/09 11:26:19;;;;;;;;;;;;;;;20.45;49.92;102938.00;5071666;28;19925;-57
2021/10/09 11:28:46;;;;;;;;;;;;;;;20.31;48.98;102932.84;5087982;28;19974;-57
2021/10/09 11:31:25;;;;;;;;;;;;;;;20.52;49.53;102930.38;5087907;28;19925;-56
2021/10/09 11:33:55;;;;;;;;;;;;;;;20.52;49.76;102927.69;5071020;28;19929;-57
2021/10/09 11:36:22;;;;;;;;;;;;;;;20.81;48.65;102922.03;5067819;28;19954;-57
2021/10/09 11:38:58;;;;;;;;;;;;;;;21.06;47.82;102924.47;5071123;28;19986;-57
2021/10/09 11:41:25;;;;;;;;;;;;;;;21.49;48.74;102924.75;5070711;28;20288;-57
2021/10/09 11:46:48;;;;;;;;;;;;;;;21.33;46.11;102920.63;5070559;28;20368;-57
2021/10/09 11:55:13;;;;;;;;;;;;;;;21.07;46.03;102912.81;5103737;28;19978;-58
2021/10/09 11:57:40;;;;;;;;;;;;;;;21.16;46.48;102918.41;5076659;28;20339;-57
2021/10/09 12:00:25;;;;;;;;;;;;;;;21.78;44.46;102919.81;5076033;28;19969;-58
2021/10/09 12:02:56;;;;;;;;;;;;;;;21.44;45.80;102906.41;5075247;28;19924;-58
2021/10/09 12:05:26;;;;;;;;;;;;;;;21.44;46.06;102912.59;5072541;28;19999;-58
2021/10/09 12:11:10;;;;;;;;;;;;;;;22.15;44.66;102903.41;5076186;28;19924;-58
2021/10/09 12:13:50;;;;;;;;;;;;;;;22.52;44.62;102903.03;5076171;28;20333;-58
2021/10/09 12:16:21;;;;;;;;;;;;;;;22.52;42.81;102899.50;5075865;28;20386;-58
2021/10/09 12:18:58;;;;;;;;;;;;;;;22.66;44.31;102892.97;5075981;28;20457;-58
2021/10/09 12:21:26;;;;;;;;;;;;;;;22.82;42.15;102898.72;5075711;28;19931;-57
2021/10/09 12:23:53;;;;;;;;;;;;;;;22.81;42.39;102898.88;5107275;28;19932;-58
2021/10/09 12:26:21;;;;;;;;;;;;;;;22.67;43.23;102883.97;5072695;28;19935;-58
2021/10/09 12:29:03;;;;;;;;;;;;;;;22.74;43.41;102890.50;5072638;28;19931;-57
2021/10/09 12:31:30;;;;;;;;;;;;;;;22.69;42.60;102884.69;5075805;28;19936;-57
2021/10/09 12:33:56;;;;;;;;;;;;;;;23.05;41.06;102882.50;5075690;28;20380;-52
2021/10/09 12:36:42;;;;;;;;;;;;;;;22.99;41.00;102888.38;5075306;28;19925;-50
2021/10/09 12:39:21;;;;;;;;;;;;;;;22.77;42.40;102879.53;5088677;28;19929;-58
2021/10/09 12:41:49;;;;;;;;;;;;;;;22.98;41.14;102875.97;5075756;28;19939;-58
2021/10/09 12:44:16;;;;;;;;;;;;;;;22.98;41.34;102871.44;5075466;28;19978;-58
2021/10/09 12:46:42;;;;;;;;;;;;;;;22.97;41.92;102875.09;5075436;28;19931;-58
2021/10/09 12:49:09;;;;;;;;;;;;;;;23.23;41.33;102878.25;5107876;28;19925;-58
2021/10/09 12:51:36;;;;;;;;;;;;;;;23.49;41.54;102874.22;5073257;28;19924;-58
2021/10/09 12:54:09;;;;;;;;;;;;;;;23.63;41.00;102876.53;5072564;28;20406;-58
2021/10/09 12:56:36;;;;;;;;;;;;;;;23.64;40.95;102872.84;5075482;28;19924;-58
2021/10/09 12:59:02;;;;;;;;;;;;;;;23.61;39.88;102870.44;5106054;28;19954;-57
2021/10/09 13:01:29;;;;;;;;;;;;;;;23.43;40.69;102870.25;5104626;28;19931;-58
2021/10/09 13:03:56;;;;;;;;;;;;;;;23.46;40.49;102870.84;5074068;28;19925;-57
2021/10/09 13:06:23;;;;;;;;;;;;;;;23.65;40.23;102868.34;5075170;28;19925;-57
2021/10/09 13:08:50;;;;;;;;;;;;;;;23.22;41.32;102867.63;5107382;28;19924;-57
2021/10/09 13:11:22;;;;;;;;;;;;;;;23.22;41.10;102863.13;5074023;28;19924;-57
2021/10/09 13:13:49;;;;;;;;;;;;;;;22.91;41.51;102855.03;5073264;28;20299;-57
2021/10/09 13:16:16;;;;;;;;;;;;;;;23.02;41.40;102858.63;5070606;28;20363;-57
2021/10/09 13:18:42;;;;;;;;;;;;;;;22.78;41.69;102857.06;5073834;28;20309;-58
2021/10/09 13:21:13;;;;;;;;;;;;;;;23.10;41.61;102851.59;5090779;28;19929;-57
2021/10/09 13:23:40;;;;;;;;;;;;;;;22.06;43.52;102854.13;5075162;28;19982;-57
2021/10/09 13:26:06;;;;;;;;;;;;;;;22.06;44.57;102851.44;5074843;28;20291;-57
2021/10/09 13:28:36;;;;;;;;;;;;;;;21.73;44.64;102849.69;5072942;28;19936;-57
2021/10/09 13:31:04;;;;;;;;;;;;;;;21.84;43.88;102847.00;5103277;28;19954;-57
2021/10/09 13:33:30;;;;;;;;;;;;;;;21.93;44.54;102848.06;5073969;28;19925;-57
2021/10/09 13:35:57;;;;;;;;;;;;;;;21.96;43.68;102845.13;5074468;28;19959;-57
2021/10/09 13:38:29;;;;;;;;;;;;;;;21.66;44.18;102843.16;5074472;28;19928;-57
2021/10/09 13:40:56;;;;;;;;;;;;;;;21.40;44.49;102846.06;5104039;28;20019;-57
2021/10/09 13:43:22;;;;;;;;;;;;;;;21.36;44.30;102840.09;5070791;28;19981;-57
2021/10/09 13:45:49;;;;;;;;;;;;;;;20.67;47.62;102843.69;5105530;28;19925;-57
2021/10/09 13:48:16;;;;;;;;;;;;;;;20.61;48.22;102844.16;5074159;28;19990;-57
2021/10/09 13:50:51;;;;;;;;;;;;;;;20.48;48.58;102838.03;5073994;28;20407;-57
2021/10/09 13:53:18;;;;;;;;;;;;;;;20.35;49.31;102832.78;5071319;28;19924;-57
2021/10/09 13:55:45;;;;;;;;;;;;;;;20.27;49.32;102836.03;5072427;28;19990;-57
2021/10/09 13:58:12;;;;;;;;;;;;;;;19.93;50.60;102836.75;5074009;28;19925;-57
2021/10/09 14:00:39;;;;;;;;;;;;;;;19.75;50.58;102830.03;5074049;28;20361;-57
2021/10/09 14:03:06;;;;;;;;;;;;;;;19.84;50.25;102833.91;5106222;28;20001;-57
2021/10/09 14:05:34;;;;;;;;;;;;;;;19.62;51.64;102832.75;5072729;28;20027;-57
2021/10/09 14:08:01;;;;;;;;;;;;;;;19.47;52.65;102832.06;5073960;28;19931;-57
2021/10/09 14:10:28;;;;;;;;;;;;;;;19.36;53.28;102837.28;5072663;28;19924;-57
2021/10/09 14:12:58;;;;;;;;;;;;;;;18.88;54.24;102836.16;5073322;28;19931;-57
2021/10/09 14:15:25;;;;;;;;;;;;;;;18.55;54.77;102828.63;5106073;28;20371;-57
2021/10/09 14:17:51;;;;;;;;;;;;;;;18.33;56.16;102827.41;5073876;28;19928;-57
2021/10/09 14:20:18;;;;;;;;;;;;;;;18.24;56.92;102826.22;5106283;28;19925;-50
2021/10/09 14:22:45;;;;;;;;;;;;;;;18.22;56.60;102822.81;5073835;28;19924;-49
2021/10/09 14:25:12;;;;;;;;;;;;;;;18.01;57.48;102818.91;5073708;28;19974;-49
2021/10/09 14:27:39;;;;;;;;;;;;;;;18.15;57.30;102820.69;5073711;28;19924;-49
2021/10/09 14:30:06;;;;;;;;;;;;;;;17.94;57.57;102828.25;5088819;28;19933;-49
2021/10/09 14:32:34;;;;;;;;;;;;;;;17.93;57.65;102821.22;5072870;28;19928;-49
2021/10/09 14:35:00;;;;;;;;;;;;;;;17.95;57.99;102827.31;5069954;28;20380;-57
2021/10/09 14:37:27;;;;;;;;;;;;;;;17.49;59.21;102820.44;5071613;28;19928;-57
2021/10/09 14:39:53;;;;;;;;;;;;;;;17.29;59.50;102824.34;5072937;28;19994;-57
2021/10/09 14:42:21;;;;;;;;;;;;;;;17.27;60.38;102819.13;5071806;28;19993;-57
2021/10/09 14:44:48;;;;;;;;;;;;;;;17.26;60.39;102809.47;5071791;28;19940;-56
2021/10/09 14:53:44;;;;;;;;;;;;;;;17.10;60.69;102803.38;5073252;28;19928;-56
2021/10/09 15:20:18;;;;;;;;;;;;;;;16.36;63.74;102793.56;5072549;28;19925;-57